Terminal Aerodrome Forecast
Issued by NWS

Home | Current Version | Previous Version | Text Only | Print | Product List | Glossary On
Versions: 1 2 3 4 5 6 7 8 9 10 11 12 13
000
FTUS45 KCYS 210538
TAFAIA
TAF
KAIA 210538Z 2106/2206 28006KT P6SM BKN050 BKN100
     FM210900 27005KT P6SM SCT100 SCT250
     FM211900 30005KT P6SM BKN200=

USA.gov is the U.S. government's official web portal to all federal, state and local government web resources and services.